sensor_id;sensor_type;location;lat;lon;timestamp;pressure;altitude;pressure_sealevel;temperature;humidity
79612;BME280;69094;48.154;11.536;2023-04-25T00:01:32;94876.91;;;6.98;68.15
79612;BME280;69094;48.154;11.536;2023-04-25T00:04:01;94878.03;;;6.97;68.33
79612;BME280;69094;48.154;11.536;2023-04-25T00:06:27;94878.53;;;6.99;67.90
79612;BME280;69094;48.154;11.536;2023-04-25T00:08:53;94871.06;;;6.96;68.14
79612;BME280;69094;48.154;11.536;2023-04-25T00:11:19;94880.13;;;6.91;68.49
79612;BME280;69094;48.154;11.536;2023-04-25T00:13:44;94887.75;;;6.98;67.78
79612;BME280;69094;48.154;11.536;2023-04-25T00:16:11;94894.41;;;7.00;67.42
79612;BME280;69094;48.154;11.536;2023-04-25T00:18:38;94888.22;;;7.00;67.49
79612;BME280;69094;48.154;11.536;2023-04-25T00:21:04;94896.16;;;7.05;67.21
79612;BME280;69094;48.154;11.536;2023-04-25T00:23:31;94894.44;;;7.09;67.50
79612;BME280;69094;48.154;11.536;2023-04-25T00:25:56;94892.34;;;7.15;66.99
79612;BME280;69094;48.154;11.536;2023-04-25T00:28:22;94891.56;;;7.14;66.79
79612;BME280;69094;48.154;11.536;2023-04-25T00:30:47;94895.69;;;7.20;66.52
79612;BME280;69094;48.154;11.536;2023-04-25T00:33:12;94890.44;;;7.15;66.25
79612;BME280;69094;48.154;11.536;2023-04-25T00:35:38;94893.16;;;7.15;67.07
79612;BME280;69094;48.154;11.536;2023-04-25T00:38:03;94890.91;;;7.17;66.98
79612;BME280;69094;48.154;11.536;2023-04-25T00:40:29;94891.25;;;7.16;66.39
79612;BME280;69094;48.154;11.536;2023-04-25T00:42:54;94885.53;;;7.08;67.18
79612;BME280;69094;48.154;11.536;2023-04-25T00:45:20;94885.84;;;7.07;67.03
79612;BME280;69094;48.154;11.536;2023-04-25T00:47:45;94882.16;;;7.03;67.51
79612;BME280;69094;48.154;11.536;2023-04-25T00:50:13;94879.00;;;7.01;67.43
79612;BME280;69094;48.154;11.536;2023-04-25T00:52:40;94880.44;;;6.98;67.08
79612;BME280;69094;48.154;11.536;2023-04-25T00:55:07;94865.16;;;6.94;67.51
79612;BME280;69094;48.154;11.536;2023-04-25T00:57:33;94862.63;;;6.88;67.66
79612;BME280;69094;48.154;11.536;2023-04-25T00:59:59;94869.91;;;6.88;67.69
79612;BME280;69094;48.154;11.536;2023-04-25T01:02:25;94867.84;;;6.85;68.23
79612;BME280;69094;48.154;11.536;2023-04-25T01:04:52;94862.94;;;6.78;68.25
79612;BME280;69094;48.154;11.536;2023-04-25T01:07:18;94873.88;;;6.73;68.47
79612;BME280;69094;48.154;11.536;2023-04-25T01:09:43;94875.00;;;6.72;68.82
79612;BME280;69094;48.154;11.536;2023-04-25T01:12:09;94879.00;;;6.66;68.61
79612;BME280;69094;48.154;11.536;2023-04-25T01:14:34;94875.81;;;6.64;68.30
79612;BME280;69094;48.154;11.536;2023-04-25T01:17:00;94868.19;;;6.66;68.84
79612;BME280;69094;48.154;11.536;2023-04-25T01:19:25;94872.47;;;6.67;68.63
79612;BME280;69094;48.154;11.536;2023-04-25T01:21:51;94868.19;;;6.66;68.53
79612;BME280;69094;48.154;11.536;2023-04-25T01:24:16;94862.28;;;6.64;69.05
79612;BME280;69094;48.154;11.536;2023-04-25T01:26:42;94858.13;;;6.58;68.34
79612;BME280;69094;48.154;11.536;2023-04-25T01:29:19;94861.47;;;6.55;68.33
79612;BME280;69094;48.154;11.536;2023-04-25T01:31:45;94868.78;;;6.54;68.59
79612;BME280;69094;48.154;11.536;2023-04-25T01:34:11;94856.53;;;6.48;69.20
79612;BME280;69094;48.154;11.536;2023-04-25T01:36:37;94849.84;;;6.45;69.60
79612;BME280;69094;48.154;11.536;2023-04-25T01:39:03;94850.31;;;6.47;69.52
79612;BME280;69094;48.154;11.536;2023-04-25T01:41:28;94855.41;;;6.40;68.93
79612;BME280;69094;48.154;11.536;2023-04-25T01:43:54;94860.16;;;6.35;69.53
79612;BME280;69094;48.154;11.536;2023-04-25T01:46:20;94860.81;;;6.40;69.06
79612;BME280;69094;48.154;11.536;2023-04-25T01:48:45;94862.06;;;6.43;69.13
79612;BME280;69094;48.154;11.536;2023-04-25T01:51:12;94856.34;;;6.36;69.08
79612;BME280;69094;48.154;11.536;2023-04-25T01:53:38;94851.56;;;6.33;69.23
79612;BME280;69094;48.154;11.536;2023-04-25T01:56:05;94867.31;;;6.31;68.60
79612;BME280;69094;48.154;11.536;2023-04-25T01:58:30;94866.50;;;6.30;69.02
79612;BME280;69094;48.154;11.536;2023-04-25T02:00:55;94861.09;;;6.21;69.45
79612;BME280;69094;48.154;11.536;2023-04-25T02:03:21;94863.63;;;6.18;69.65
79612;BME280;69094;48.154;11.536;2023-04-25T02:05:46;94856.00;;;6.11;70.29
79612;BME280;69094;48.154;11.536;2023-04-25T02:08:11;94849.63;;;6.07;69.67
79612;BME280;69094;48.154;11.536;2023-04-25T02:10:37;94845.81;;;6.17;69.51
79612;BME280;69094;48.154;11.536;2023-04-25T02:13:02;94851.22;;;6.17;69.48
79612;BME280;69094;48.154;11.536;2023-04-25T02:15:28;94847.88;;;6.11;69.44
79612;BME280;69094;48.154;11.536;2023-04-25T02:17:54;94856.78;;;6.12;68.84
79612;BME280;69094;48.154;11.536;2023-04-25T02:20:23;94854.09;;;6.12;69.30
79612;BME280;69094;48.154;11.536;2023-04-25T02:22:48;94856.44;;;6.13;68.67
79612;BME280;69094;48.154;11.536;2023-04-25T02:25:14;94854.56;;;6.14;68.33
79612;BME280;69094;48.154;11.536;2023-04-25T02:27:41;94853.44;;;6.15;68.88
79612;BME280;69094;48.154;11.536;2023-04-25T02:30:07;94850.09;;;6.18;68.92
79612;BME280;69094;48.154;11.536;2023-04-25T02:32:33;94843.78;;;6.22;68.74
79612;BME280;69094;48.154;11.536;2023-04-25T02:34:59;94835.50;;;6.19;67.78
79612;BME280;69094;48.154;11.536;2023-04-25T02:37:29;94849.47;;;6.21;67.65
79612;BME280;69094;48.154;11.536;2023-04-25T02:39:54;94847.09;;;6.19;67.15
79612;BME280;69094;48.154;11.536;2023-04-25T02:42:20;94841.69;;;6.19;67.36
79612;BME280;69094;48.154;11.536;2023-04-25T02:44:45;94839.50;;;6.21;68.12
79612;BME280;69094;48.154;11.536;2023-04-25T02:47:10;94839.81;;;6.29;67.18
79612;BME280;69094;48.154;11.536;2023-04-25T02:49:36;94837.28;;;6.32;67.74
79612;BME280;69094;48.154;11.536;2023-04-25T02:52:01;94839.63;;;6.25;66.82
79612;BME280;69094;48.154;11.536;2023-04-25T02:54:26;94843.81;;;6.31;66.88
79612;BME280;69094;48.154;11.536;2023-04-25T02:56:52;94844.59;;;6.40;66.32
79612;BME280;69094;48.154;11.536;2023-04-25T02:59:17;94845.72;;;6.39;66.93
79612;BME280;69094;48.154;11.536;2023-04-25T03:01:42;94840.94;;;6.45;66.17
79612;BME280;69094;48.154;11.536;2023-04-25T03:04:08;94847.47;;;6.44;66.44
79612;BME280;69094;48.154;11.536;2023-04-25T03:06:33;94845.88;;;6.43;66.07
79612;BME280;69094;48.154;11.536;2023-04-25T03:08:58;94840.00;;;6.50;65.56
79612;BME280;69094;48.154;11.536;2023-04-25T03:11:25;94832.53;;;6.55;66.24
79612;BME280;69094;48.154;11.536;2023-04-25T03:13:50;94821.06;;;6.58;65.19
79612;BME280;69094;48.154;11.536;2023-04-25T03:16:16;94839.38;;;6.61;65.65
79612;BME280;69094;48.154;11.536;2023-04-25T03:18:41;94838.09;;;6.59;67.00
79612;BME280;69094;48.154;11.536;2023-04-25T03:21:06;94825.06;;;6.52;66.99
79612;BME280;69094;48.154;11.536;2023-04-25T03:23:32;94817.59;;;6.49;66.63
79612;BME280;69094;48.154;11.536;2023-04-25T03:25:57;94814.72;;;6.45;66.21
79612;BME280;69094;48.154;11.536;2023-04-25T03:28:23;94816.31;;;6.46;67.11
79612;BME280;69094;48.154;11.536;2023-04-25T03:30:48;94814.25;;;6.43;66.81
79612;BME280;69094;48.154;11.536;2023-04-25T03:33:13;94821.38;;;6.39;66.20
79612;BME280;69094;48.154;11.536;2023-04-25T03:35:39;94825.97;;;6.30;66.70
79612;BME280;69094;48.154;11.536;2023-04-25T03:38:04;94830.91;;;6.28;67.50
79612;BME280;69094;48.154;11.536;2023-04-25T03:40:30;94823.72;;;6.23;67.19
79612;BME280;69094;48.154;11.536;2023-04-25T03:42:55;94822.63;;;6.24;67.83
79612;BME280;69094;48.154;11.536;2023-04-25T03:45:21;94817.69;;;6.18;67.21
79612;BME280;69094;48.154;11.536;2023-04-25T03:47:46;94827.22;;;6.07;68.13
79612;BME280;69094;48.154;11.536;2023-04-25T03:50:11;94822.56;;;5.98;68.68
79612;BME280;69094;48.154;11.536;2023-04-25T03:52:37;94815.22;;;5.90;68.83
79612;BME280;69094;48.154;11.536;2023-04-25T03:55:02;94827.19;;;5.98;68.57
79612;BME280;69094;48.154;11.536;2023-04-25T03:57:28;94823.84;;;6.01;68.79
79612;BME280;69094;48.154;11.536;2023-04-25T03:59:53;94824.81;;;5.96;68.72
79612;BME280;69094;48.154;11.536;2023-04-25T04:02:18;94826.00;;;5.90;69.63
79612;BME280;69094;48.154;11.536;2023-04-25T04:04:44;94831.41;;;5.90;69.22
79612;BME280;69094;48.154;11.536;2023-04-25T04:07:09;94824.59;;;5.84;69.48
79612;BME280;69094;48.154;11.536;2023-04-25T04:09:35;94825.22;;;5.90;68.87
79612;BME280;69094;48.154;11.536;2023-04-25T04:12:00;94823.75;;;5.83;69.51
79612;BME280;69094;48.154;11.536;2023-04-25T04:14:27;94815.66;;;5.83;69.52
79612;BME280;69094;48.154;11.536;2023-04-25T04:16:53;94823.75;;;5.75;70.22
79612;BME280;69094;48.154;11.536;2023-04-25T04:19:18;94831.34;;;5.73;69.97
79612;BME280;69094;48.154;11.536;2023-04-25T04:21:43;94826.44;;;5.75;69.65
79612;BME280;69094;48.154;11.536;2023-04-25T04:24:09;94823.44;;;5.76;70.44
79612;BME280;69094;48.154;11.536;2023-04-25T04:26:35;94824.22;;;5.77;70.77
79612;BME280;69094;48.154;11.536;2023-04-25T04:29:02;94818.50;;;5.78;70.52
79612;BME280;69094;48.154;11.536;2023-04-25T04:31:27;94820.28;;;5.83;69.95
79612;BME280;69094;48.154;11.536;2023-04-25T04:33:53;94815.84;;;5.87;70.56
79612;BME280;69094;48.154;11.536;2023-04-25T04:36:18;94824.91;;;5.91;69.53
79612;BME280;69094;48.154;11.536;2023-04-25T04:38:48;94821.72;;;5.89;69.61
79612;BME280;69094;48.154;11.536;2023-04-25T04:41:13;94829.19;;;5.92;69.99
79612;BME280;69094;48.154;11.536;2023-04-25T04:43:39;94828.72;;;5.90;70.99
79612;BME280;69094;48.154;11.536;2023-04-25T04:46:04;94837.03;;;5.94;70.33
79612;BME280;69094;48.154;11.536;2023-04-25T04:48:31;94833.81;;;5.92;70.42
79612;BME280;69094;48.154;11.536;2023-04-25T04:51:00;94837.31;;;5.92;70.98
79612;BME280;69094;48.154;11.536;2023-04-25T04:53:26;94835.25;;;5.89;70.99
79612;BME280;69094;48.154;11.536;2023-04-25T04:55:51;94828.41;;;5.92;71.23
79612;BME280;69094;48.154;11.536;2023-04-25T04:58:17;94842.09;;;5.95;71.11
79612;BME280;69094;48.154;11.536;2023-04-25T05:00:42;94835.47;;;6.01;70.64
79612;BME280;69094;48.154;11.536;2023-04-25T05:03:07;94823.25;;;6.04;70.68
79612;BME280;69094;48.154;11.536;2023-04-25T05:05:33;94819.91;;;6.07;70.80
79612;BME280;69094;48.154;11.536;2023-04-25T05:07:58;94817.84;;;6.13;70.63
79612;BME280;69094;48.154;11.536;2023-04-25T05:10:23;94833.56;;;6.11;70.79
79612;BME280;69094;48.154;11.536;2023-04-25T05:12:49;94823.25;;;6.13;71.09
79612;BME280;69094;48.154;11.536;2023-04-25T05:15:14;94831.19;;;6.09;71.51
79612;BME280;69094;48.154;11.536;2023-04-25T05:17:39;94823.84;;;6.01;71.27
79612;BME280;69094;48.154;11.536;2023-04-25T05:20:08;94824.50;;;6.07;71.26
79612;BME280;69094;48.154;11.536;2023-04-25T05:22:36;94828.78;;;6.08;71.55
79612;BME280;69094;48.154;11.536;2023-04-25T05:25:01;94829.56;;;5.99;71.44
79612;BME280;69094;48.154;11.536;2023-04-25T05:27:28;94829.88;;;5.98;71.57
79612;BME280;69094;48.154;11.536;2023-04-25T05:29:53;94828.16;;;6.02;71.08
79612;BME280;69094;48.154;11.536;2023-04-25T05:32:19;94825.94;;;6.04;71.62
79612;BME280;69094;48.154;11.536;2023-04-25T05:34:44;94823.13;;;6.27;74.27
79612;BME280;69094;48.154;11.536;2023-04-25T05:37:09;94824.44;;;6.81;73.81
79612;BME280;69094;48.154;11.536;2023-04-25T05:39:35;94824.41;;;6.90;70.29
79612;BME280;69094;48.154;11.536;2023-04-25T05:42:00;94816.31;;;6.73;69.57
79612;BME280;69094;48.154;11.536;2023-04-25T05:44:26;94819.00;;;6.73;70.96
79612;BME280;69094;48.154;11.536;2023-04-25T05:46:52;94820.47;;;6.79;70.23
79612;BME280;69094;48.154;11.536;2023-04-25T05:49:17;94821.22;;;6.88;70.30
79612;BME280;69094;48.154;11.536;2023-04-25T05:51:42;94817.59;;;6.84;69.68
79612;BME280;69094;48.154;11.536;2023-04-25T05:54:07;94820.78;;;6.86;69.00
79612;BME280;69094;48.154;11.536;2023-04-25T05:56:33;94837.94;;;6.73;70.25
79612;BME280;69094;48.154;11.536;2023-04-25T05:58:58;94843.19;;;6.60;71.00
79612;BME280;69094;48.154;11.536;2023-04-25T06:01:23;94844.09;;;6.38;72.43
79612;BME280;69094;48.154;11.536;2023-04-25T06:03:49;94845.00;;;5.99;75.50
79612;BME280;69094;48.154;11.536;2023-04-25T06:06:14;94865.00;;;5.67;76.06
79612;BME280;69094;48.154;11.536;2023-04-25T06:08:40;94846.72;;;5.32;76.46
79612;BME280;69094;48.154;11.536;2023-04-25T06:11:05;94843.69;;;5.34;77.73
79612;BME280;69094;48.154;11.536;2023-04-25T06:13:31;94852.25;;;5.27;78.93
79612;BME280;69094;48.154;11.536;2023-04-25T06:15:56;94852.19;;;5.18;79.18
79612;BME280;69094;48.154;11.536;2023-04-25T06:18:21;94834.59;;;5.21;80.50
79612;BME280;69094;48.154;11.536;2023-04-25T06:20:47;94834.16;;;5.28;78.90
79612;BME280;69094;48.154;11.536;2023-04-25T06:23:12;94822.94;;;5.34;76.59
79612;BME280;69094;48.154;11.536;2023-04-25T06:25:38;94826.47;;;5.44;78.53
79612;BME280;69094;48.154;11.536;2023-04-25T06:28:03;94829.78;;;5.80;78.05
79612;BME280;69094;48.154;11.536;2023-04-25T06:30:28;94833.78;;;5.83;76.29
79612;BME280;69094;48.154;11.536;2023-04-25T06:32:54;94840.63;;;5.89;76.31
79612;BME280;69094;48.154;11.536;2023-04-25T06:35:20;94836.56;;;6.00;77.28
79612;BME280;69094;48.154;11.536;2023-04-25T06:37:45;94837.41;;;5.78;77.42
79612;BME280;69094;48.154;11.536;2023-04-25T06:40:11;94837.94;;;5.89;77.59
79612;BME280;69094;48.154;11.536;2023-04-25T06:42:36;94834.78;;;5.96;78.17
79612;BME280;69094;48.154;11.536;2023-04-25T06:45:02;94831.41;;;6.65;75.79
79612;BME280;69094;48.154;11.536;2023-04-25T06:47:27;94822.34;;;7.13;73.27
79612;BME280;69094;48.154;11.536;2023-04-25T06:49:52;94831.34;;;7.34;72.14
79612;BME280;69094;48.154;11.536;2023-04-25T06:52:18;94832.84;;;8.09;70.67
79612;BME280;69094;48.154;11.536;2023-04-25T06:54:43;94834.19;;;8.74;69.02
79612;BME280;69094;48.154;11.536;2023-04-25T06:57:09;94830.34;;;9.51;66.59
79612;BME280;69094;48.154;11.536;2023-04-25T06:59:34;94840.69;;;9.36;66.34
79612;BME280;69094;48.154;11.536;2023-04-25T07:01:59;94831.69;;;9.44;63.31
79612;BME280;69094;48.154;11.536;2023-04-25T07:04:25;94832.81;;;8.89;67.51
79612;BME280;69094;48.154;11.536;2023-04-25T07:06:50;94831.22;;;8.46;67.70
79612;BME280;69094;48.154;11.536;2023-04-25T07:09:16;94835.84;;;8.16;68.34
79612;BME280;69094;48.154;11.536;2023-04-25T07:11:41;94827.69;;;7.86;68.31
79612;BME280;69094;48.154;11.536;2023-04-25T07:14:07;94836.72;;;7.52;70.93
79612;BME280;69094;48.154;11.536;2023-04-25T07:16:32;94833.22;;;7.51;71.39
79612;BME280;69094;48.154;11.536;2023-04-25T07:18:57;94827.94;;;7.55;71.18
79612;BME280;69094;48.154;11.536;2023-04-25T07:21:24;94822.88;;;7.53;70.31
79612;BME280;69094;48.154;11.536;2023-04-25T07:23:50;94826.06;;;7.55;70.06
79612;BME280;69094;48.154;11.536;2023-04-25T07:26:16;94824.50;;;7.84;69.43
79612;BME280;69094;48.154;11.536;2023-04-25T07:28:42;94822.28;;;7.86;68.85
79612;BME280;69094;48.154;11.536;2023-04-25T07:31:08;94817.47;;;8.22;67.41
79612;BME280;69094;48.154;11.536;2023-04-25T07:33:34;94823.56;;;8.69;65.91
79612;BME280;69094;48.154;11.536;2023-04-25T07:36:00;94833.34;;;9.03;65.19
79612;BME280;69094;48.154;11.536;2023-04-25T07:38:25;94816.63;;;9.14;63.75
79612;BME280;69094;48.154;11.536;2023-04-25T07:40:51;94818.66;;;9.04;63.89
79612;BME280;69094;48.154;11.536;2023-04-25T07:43:17;94825.41;;;8.98;63.79
79612;BME280;69094;48.154;11.536;2023-04-25T07:45:43;94815.63;;;9.52;63.38
79612;BME280;69094;48.154;11.536;2023-04-25T07:48:09;94816.91;;;10.65;58.85
79612;BME280;69094;48.154;11.536;2023-04-25T07:50:34;94817.94;;;11.57;56.19
79612;BME280;69094;48.154;11.536;2023-04-25T07:52:59;94817.38;;;12.11;53.31
79612;BME280;69094;48.154;11.536;2023-04-25T07:55:25;94812.00;;;12.15;53.66
79612;BME280;69094;48.154;11.536;2023-04-25T07:57:51;94817.06;;;11.84;52.79
79612;BME280;69094;48.154;11.536;2023-04-25T08:00:16;94810.94;;;12.19;52.97
79612;BME280;69094;48.154;11.536;2023-04-25T08:02:42;94806.78;;;12.77;52.89
79612;BME280;69094;48.154;11.536;2023-04-25T08:05:07;94809.44;;;13.28;50.30
79612;BME280;69094;48.154;11.536;2023-04-25T08:07:37;94802.41;;;13.92;46.80
79612;BME280;69094;48.154;11.536;2023-04-25T08:10:05;94802.72;;;13.45;47.99
79612;BME280;69094;48.154;11.536;2023-04-25T08:12:30;94794.28;;;13.53;48.13
79612;BME280;69094;48.154;11.536;2023-04-25T08:14:56;94803.78;;;13.60;47.47
79612;BME280;69094;48.154;11.536;2023-04-25T08:17:21;94805.56;;;12.74;50.03
79612;BME280;69094;48.154;11.536;2023-04-25T08:19:46;94798.47;;;12.54;50.81
79612;BME280;69094;48.154;11.536;2023-04-25T08:22:12;94806.88;;;11.66;51.59
79612;BME280;69094;48.154;11.536;2023-04-25T08:24:37;94814.19;;;11.33;53.68
79612;BME280;69094;48.154;11.536;2023-04-25T08:27:06;94805.09;;;11.13;54.87
79612;BME280;69094;48.154;11.536;2023-04-25T08:29:33;94809.97;;;11.08;55.89
79612;BME280;69094;48.154;11.536;2023-04-25T08:31:58;94816.06;;;10.89;56.73
79612;BME280;69094;48.154;11.536;2023-04-25T08:34:24;94812.81;;;11.11;54.77
79612;BME280;69094;48.154;11.536;2023-04-25T08:36:50;94815.56;;;11.55;52.76
79612;BME280;69094;48.154;11.536;2023-04-25T08:39:16;94802.97;;;12.81;50.90
79612;BME280;69094;48.154;11.536;2023-04-25T08:41:41;94818.66;;;12.49;47.70
79612;BME280;69094;48.154;11.536;2023-04-25T08:44:10;94820.72;;;13.69;47.09
79612;BME280;69094;48.154;11.536;2023-04-25T08:46:37;94817.75;;;14.47;41.86
79612;BME280;69094;48.154;11.536;2023-04-25T08:49:03;94814.63;;;15.32;38.89
79612;BME280;69094;48.154;11.536;2023-04-25T08:51:32;94810.63;;;15.59;38.51
79612;BME280;69094;48.154;11.536;2023-04-25T08:54:08;94818.88;;;13.96;41.77
79612;BME280;69094;48.154;11.536;2023-04-25T08:56:34;94816.00;;;14.35;40.20
79612;BME280;69094;48.154;11.536;2023-04-25T08:59:01;94826.81;;;14.28;42.25
79612;BME280;69094;48.154;11.536;2023-04-25T09:01:27;94819.81;;;14.80;39.91
79612;BME280;69094;48.154;11.536;2023-04-25T09:03:53;94815.59;;;14.86;39.61
79612;BME280;69094;48.154;11.536;2023-04-25T09:06:19;94822.91;;;14.52;39.64
79612;BME280;69094;48.154;11.536;2023-04-25T09:08:44;94817.97;;;13.46;41.30
79612;BME280;69094;48.154;11.536;2023-04-25T09:11:10;94819.22;;;12.93;41.90
79612;BME280;69094;48.154;11.536;2023-04-25T09:13:35;94808.50;;;12.49;44.35
79612;BME280;69094;48.154;11.536;2023-04-25T09:16:01;94820.53;;;12.64;43.96
79612;BME280;69094;48.154;11.536;2023-04-25T09:18:31;94815.94;;;12.17;44.72
79612;BME280;69094;48.154;11.536;2023-04-25T09:21:08;94826.78;;;12.14;45.07
79612;BME280;69094;48.154;11.536;2023-04-25T09:23:59;94827.00;;;11.77;45.23
79612;BME280;69094;48.154;11.536;2023-04-25T09:26:25;94833.31;;;11.65;45.01
79612;BME280;69094;48.154;11.536;2023-04-25T09:29:05;94824.09;;;11.54;46.00
79612;BME280;69094;48.154;11.536;2023-04-25T09:31:33;94818.44;;;11.47;46.05
79612;BME280;69094;48.154;11.536;2023-04-25T09:33:59;94828.03;;;11.56;45.15
79612;BME280;69094;48.154;11.536;2023-04-25T09:36:30;94832.06;;;12.22;43.59
79612;BME280;69094;48.154;11.536;2023-04-25T09:38:56;94834.63;;;12.66;42.38
79612;BME280;69094;48.154;11.536;2023-04-25T09:41:24;94837.72;;;12.65;41.59
79612;BME280;69094;48.154;11.536;2023-04-25T09:43:50;94832.81;;;12.55;41.74
79612;BME280;69094;48.154;11.536;2023-04-25T09:46:16;94833.34;;;12.44;41.69
79612;BME280;69094;48.154;11.536;2023-04-25T09:48:50;94829.38;;;12.93;41.25
79612;BME280;69094;48.154;11.536;2023-04-25T09:51:16;94830.13;;;14.90;37.13
79612;BME280;69094;48.154;11.536;2023-04-25T09:53:43;94839.59;;;16.87;34.38
79612;BME280;69094;48.154;11.536;2023-04-25T09:56:10;94835.41;;;18.05;31.76
79612;BME280;69094;48.154;11.536;2023-04-25T09:58:38;94836.16;;;17.92;31.98
79612;BME280;69094;48.154;11.536;2023-04-25T10:01:06;94834.78;;;16.76;32.51
79612;BME280;69094;48.154;11.536;2023-04-25T10:03:34;94823.72;;;15.39;34.11
79612;BME280;69094;48.154;11.536;2023-04-25T10:06:02;94832.16;;;14.67;36.98
79612;BME280;69094;48.154;11.536;2023-04-25T10:08:36;94832.28;;;14.28;38.29
79612;BME280;69094;48.154;11.536;2023-04-25T10:11:07;94826.88;;;16.12;34.72
79612;BME280;69094;48.154;11.536;2023-04-25T10:13:34;94829.84;;;16.96;32.74
79612;BME280;69094;48.154;11.536;2023-04-25T10:16:02;94821.78;;;16.66;32.68
79612;BME280;69094;48.154;11.536;2023-04-25T10:18:29;94818.69;;;17.48;31.58
79612;BME280;69094;48.154;11.536;2023-04-25T10:20:56;94810.63;;;18.02;30.44
79612;BME280;69094;48.154;11.536;2023-04-25T10:23:23;94811.31;;;16.31;32.91
79612;BME280;69094;48.154;11.536;2023-04-25T10:25:53;94822.56;;;15.40;35.51
79612;BME280;69094;48.154;11.536;2023-04-25T10:28:19;94819.88;;;14.83;35.35
79612;BME280;69094;48.154;11.536;2023-04-25T10:30:57;94814.72;;;13.60;38.18
79612;BME280;69094;48.154;11.536;2023-04-25T10:33:40;94814.84;;;12.89;41.20
79612;BME280;69094;48.154;11.536;2023-04-25T10:36:22;94831.81;;;12.27;45.03
79612;BME280;69094;48.154;11.536;2023-04-25T10:38:49;94844.50;;;11.32;46.49
79612;BME280;69094;48.154;11.536;2023-04-25T10:41:19;94847.56;;;11.02;45.88
79612;BME280;69094;48.154;11.536;2023-04-25T10:43:48;94848.91;;;10.43;45.80
79612;BME280;69094;48.154;11.536;2023-04-25T10:46:28;94844.69;;;9.97;46.12
79612;BME280;69094;48.154;11.536;2023-04-25T10:49:01;94854.88;;;9.87;47.50
79612;BME280;69094;48.154;11.536;2023-04-25T10:51:28;94858.84;;;9.90;47.80
79612;BME280;69094;48.154;11.536;2023-04-25T10:59:03;94870.22;;;10.29;50.01
79612;BME280;69094;48.154;11.536;2023-04-25T11:01:39;94875.53;;;10.50;50.62
79612;BME280;69094;48.154;11.536;2023-04-25T11:04:05;94878.59;;;10.61;50.10
79612;BME280;69094;48.154;11.536;2023-04-25T11:06:51;94894.25;;;10.64;49.07
79612;BME280;69094;48.154;11.536;2023-04-25T11:09:23;94889.13;;;10.38;49.64
79612;BME280;69094;48.154;11.536;2023-04-25T11:11:56;94892.31;;;10.76;49.18
79612;BME280;69094;48.154;11.536;2023-04-25T11:14:24;94907.50;;;10.53;51.87
79612;BME280;69094;48.154;11.536;2023-04-25T11:16:53;94909.34;;;10.61;53.88
79612;BME280;69094;48.154;11.536;2023-04-25T11:19:20;94917.50;;;10.73;54.50
79612;BME280;69094;48.154;11.536;2023-04-25T11:21:47;94911.72;;;11.15;54.44
79612;BME280;69094;48.154;11.536;2023-04-25T11:24:12;94924.72;;;11.34;54.05
79612;BME280;69094;48.154;11.536;2023-04-25T11:26:38;94924.69;;;11.06;50.94
79612;BME280;69094;48.154;11.536;2023-04-25T11:29:06;94922.00;;;10.69;51.64
79612;BME280;69094;48.154;11.536;2023-04-25T11:31:31;94928.81;;;10.63;50.91
79612;BME280;69094;48.154;11.536;2023-04-25T11:33:57;94933.91;;;10.52;52.76
79612;BME280;69094;48.154;11.536;2023-04-25T11:36:26;94929.47;;;10.35;52.32
79612;BME280;69094;48.154;11.536;2023-04-25T11:38:52;94919.41;;;10.36;53.11
79612;BME280;69094;48.154;11.536;2023-04-25T11:41:18;94925.50;;;10.33;53.29
79612;BME280;69094;48.154;11.536;2023-04-25T11:43:44;94924.44;;;10.13;54.27
79612;BME280;69094;48.154;11.536;2023-04-25T11:46:10;94938.13;;;10.04;52.97
79612;BME280;69094;48.154;11.536;2023-04-25T11:48:40;94941.63;;;9.59;55.56
79612;BME280;69094;48.154;11.536;2023-04-25T11:51:06;94942.41;;;8.76;61.27
79612;BME280;69094;48.154;11.536;2023-04-25T11:53:31;94956.75;;;8.38;65.46
79612;BME280;69094;48.154;11.536;2023-04-25T11:55:56;94958.63;;;7.99;67.70
79612;BME280;69094;48.154;11.536;2023-04-25T11:58:22;94958.53;;;7.78;68.43
79612;BME280;69094;48.154;11.536;2023-04-25T12:00:47;94960.28;;;7.74;67.77
79612;BME280;69094;48.154;11.536;2023-04-25T12:03:13;94951.50;;;7.77;67.75
79612;BME280;69094;48.154;11.536;2023-04-25T12:05:38;94953.13;;;7.69;67.21
79612;BME280;69094;48.154;11.536;2023-04-25T12:08:15;94962.34;;;7.77;67.37
79612;BME280;69094;48.154;11.536;2023-04-25T12:10:46;94968.72;;;7.72;66.12
79612;BME280;69094;48.154;11.536;2023-04-25T12:13:25;94965.09;;;7.68;65.66
79612;BME280;69094;48.154;11.536;2023-04-25T12:15:54;94968.06;;;7.84;66.36
79612;BME280;69094;48.154;11.536;2023-04-25T12:18:20;94965.84;;;7.77;65.52
79612;BME280;69094;48.154;11.536;2023-04-25T12:20:48;94968.56;;;7.77;65.08
79612;BME280;69094;48.154;11.536;2023-04-25T12:23:13;94977.00;;;7.67;65.22
79612;BME280;69094;48.154;11.536;2023-04-25T12:25:39;94970.50;;;7.60;66.19
79612;BME280;69094;48.154;11.536;2023-04-25T12:31:02;94968.22;;;7.96;66.61
79612;BME280;69094;48.154;11.536;2023-04-25T12:33:36;94964.59;;;8.31;65.08
79612;BME280;69094;48.154;11.536;2023-04-25T12:36:03;94969.41;;;8.25;65.13
79612;BME280;69094;48.154;11.536;2023-04-25T12:38:36;94971.25;;;8.51;65.12
79612;BME280;69094;48.154;11.536;2023-04-25T12:41:02;94977.19;;;8.74;64.77
79612;BME280;69094;48.154;11.536;2023-04-25T12:43:28;94966.84;;;8.29;61.77
79612;BME280;69094;48.154;11.536;2023-04-25T12:45:55;94963.53;;;8.14;63.11
79612;BME280;69094;48.154;11.536;2023-04-25T12:48:21;94971.25;;;8.42;63.12
79612;BME280;69094;48.154;11.536;2023-04-25T12:50:47;94975.88;;;8.50;63.45
79612;BME280;69094;48.154;11.536;2023-04-25T12:53:15;94988.66;;;8.41;63.83
79612;BME280;69094;48.154;11.536;2023-04-25T12:55:40;94986.91;;;8.36;65.24
79612;BME280;69094;48.154;11.536;2023-04-25T12:58:05;94987.72;;;8.28;65.77
79612;BME280;69094;48.154;11.536;2023-04-25T13:00:31;94982.16;;;8.25;66.23
79612;BME280;69094;48.154;11.536;2023-04-25T13:02:57;94996.53;;;8.16;65.49